createdAt,value
2023-02-01T00:01:08.206Z,5.90
2023-02-01T00:03:35.186Z,6.00
2023-02-01T00:06:05.675Z,6.00
2023-02-01T00:08:36.108Z,6.00
2023-02-01T00:11:24.505Z,6.10
2023-02-01T00:13:51.995Z,6.10
2023-02-01T00:16:28.360Z,6.10
2023-02-01T00:19:12.611Z,6.10
2023-02-01T00:21:46.525Z,6.10
2023-02-01T00:24:14.112Z,6.10
2023-02-01T00:26:45.182Z,6.20
2023-02-01T00:29:19.553Z,6.20
2023-02-01T00:31:47.395Z,6.20
2023-02-01T00:34:17.311Z,6.20
2023-02-01T00:36:45.305Z,6.20
2023-02-01T00:39:13.150Z,6.30
2023-02-01T00:41:41.189Z,6.30
2023-02-01T00:44:08.774Z,6.40
2023-02-01T00:46:35.647Z,6.40
2023-02-01T00:49:05.419Z,6.40
2023-02-01T00:51:34.598Z,6.50
2023-02-01T00:54:01.394Z,6.60
2023-02-01T00:56:28.586Z,6.60
2023-02-01T00:58:56.003Z,6.60
2023-02-01T01:01:30.755Z,6.70
2023-02-01T01:04:01.537Z,6.70
2023-02-01T01:06:32.542Z,6.70
2023-02-01T01:09:02.487Z,6.70
2023-02-01T01:11:33.961Z,6.70
2023-02-01T01:14:01.784Z,6.80
2023-02-01T01:16:31.467Z,6.80
2023-02-01T01:18:59.232Z,6.70
2023-02-01T01:21:27.077Z,6.70
2023-02-01T01:23:54.433Z,6.70
2023-02-01T01:26:26.314Z,6.70
2023-02-01T01:28:56.874Z,6.70
2023-02-01T01:31:24.820Z,6.70
2023-02-01T01:33:55.559Z,6.80
2023-02-01T01:36:25.365Z,6.70
2023-02-01T01:38:52.816Z,6.70
2023-02-01T01:41:24.380Z,6.80
2023-02-01T01:44:01.885Z,6.80
2023-02-01T01:46:35.260Z,6.80
2023-02-01T01:49:24.933Z,6.80
2023-02-01T01:52:02.341Z,6.80
2023-02-01T01:54:39.908Z,6.80
2023-02-01T01:57:16.977Z,6.90
2023-02-01T01:59:53.517Z,6.90
2023-02-01T02:02:20.623Z,6.90
2023-02-01T02:04:48.517Z,6.90
2023-02-01T02:07:24.170Z,6.90
2023-02-01T02:09:59.928Z,6.90
2023-02-01T02:12:27.880Z,7.00
2023-02-01T02:14:57.419Z,7.00
2023-02-01T02:17:32.532Z,7.00
2023-02-01T02:20:49.467Z,7.00
2023-02-01T02:23:38.718Z,7.00
2023-02-01T02:26:17.536Z,7.00
2023-02-01T02:29:27.564Z,7.00
2023-02-01T02:32:35.186Z,7.00
2023-02-01T02:35:28.314Z,7.00
2023-02-01T02:38:41.722Z,7.10
2023-02-01T02:42:05.363Z,7.10
2023-02-01T02:45:06.278Z,7.10
2023-02-01T02:47:55.576Z,7.20
2023-02-01T02:50:56.617Z,7.10
2023-02-01T02:53:55.175Z,7.20
2023-02-01T02:56:44.470Z,7.20
2023-02-01T02:59:37.096Z,7.20
2023-02-01T03:02:25.841Z,7.20
2023-02-01T03:05:05.548Z,7.20
2023-02-01T03:08:02.225Z,7.20
2023-02-01T03:10:56.733Z,7.20
2023-02-01T03:13:40.618Z,7.10
2023-02-01T03:16:37.753Z,7.10
2023-02-01T03:19:18.430Z,7.10
2023-02-01T03:22:04.749Z,7.10
2023-02-01T03:24:42.745Z,7.10
2023-02-01T03:27:23.581Z,7.00
2023-02-01T03:30:09.032Z,7.00
2023-02-01T03:33:01.175Z,7.00
2023-02-01T03:36:07.905Z,6.90
2023-02-01T03:39:14.639Z,6.90
2023-02-01T03:42:02.780Z,6.90
2023-02-01T03:44:39.294Z,6.90
2023-02-01T03:47:22.472Z,6.90
2023-02-01T03:50:05.718Z,6.90
2023-02-01T03:52:42.187Z,6.90
2023-02-01T03:55:17.481Z,6.90
2023-02-01T03:58:12.573Z,6.90
2023-02-01T04:00:40.077Z,6.90
2023-02-01T04:03:08.431Z,6.90
2023-02-01T04:05:42.832Z,6.90
2023-02-01T04:08:09.576Z,7.00
2023-02-01T04:10:36.341Z,7.00
2023-02-01T04:13:03.085Z,7.00
2023-02-01T04:15:29.848Z,7.00
2023-02-01T04:17:59.113Z,7.00
2023-02-01T04:20:26.085Z,7.00
2023-02-01T04:22:56.105Z,7.00
2023-02-01T04:25:23.122Z,7.00
2023-02-01T04:27:50.006Z,7.00
2023-02-01T04:30:17.533Z,7.00
2023-02-01T04:32:44.489Z,7.00
2023-02-01T04:35:12.647Z,7.10
2023-02-01T04:37:39.589Z,7.10
2023-02-01T04:40:07.447Z,7.10
2023-02-01T04:42:34.268Z,7.10
2023-02-01T04:45:01.089Z,7.10
2023-02-01T04:47:27.832Z,7.00
2023-02-01T04:50:00.110Z,7.00
2023-02-01T04:52:28.281Z,6.90
2023-02-01T04:55:00.589Z,7.00
2023-02-01T04:57:27.421Z,6.90
2023-02-01T04:59:57.650Z,6.90
2023-02-01T05:02:25.711Z,6.80
2023-02-01T05:04:54.894Z,6.80
2023-02-01T05:07:21.700Z,6.80
2023-02-01T05:09:54.240Z,6.80
2023-02-01T05:12:40.186Z,6.70
2023-02-01T05:15:07.720Z,6.70
2023-02-01T05:17:34.448Z,6.70
2023-02-01T05:20:01.202Z,6.80
2023-02-01T05:22:27.994Z,6.70
2023-02-01T05:24:54.697Z,6.70
2023-02-01T05:27:21.538Z,6.70
2023-02-01T05:29:48.306Z,6.70
2023-02-01T05:32:22.199Z,6.70
2023-02-01T05:34:50.181Z,6.70
2023-02-01T05:37:19.071Z,6.70
2023-02-01T05:39:45.835Z,6.80
2023-02-01T05:42:12.729Z,6.80
2023-02-01T05:44:39.498Z,6.80
2023-02-01T05:47:06.520Z,6.80
2023-02-01T05:49:33.288Z,6.80
2023-02-01T05:52:00.769Z,6.80
2023-02-01T05:54:27.789Z,6.80
2023-02-01T05:56:54.536Z,6.80
2023-02-01T05:59:21.324Z,6.80
2023-02-01T06:01:48.178Z,6.80
2023-02-01T06:04:17.769Z,6.80
2023-02-01T06:06:44.572Z,6.70
2023-02-01T06:09:11.343Z,6.80
2023-02-01T06:11:42.285Z,6.70
2023-02-01T06:14:09.107Z,6.80
2023-02-01T06:16:35.945Z,6.70
2023-02-01T06:19:02.835Z,6.70
2023-02-01T06:21:29.611Z,6.70
2023-02-01T06:23:58.469Z,6.70
2023-02-01T06:26:25.647Z,6.70
2023-02-01T06:28:52.700Z,6.70
2023-02-01T06:31:19.714Z,6.70
2023-02-01T06:33:47.890Z,6.70
2023-02-01T06:36:16.244Z,6.60
2023-02-01T06:38:43.151Z,6.60
2023-02-01T06:41:11.025Z,6.60
2023-02-01T06:43:38.238Z,6.60
2023-02-01T06:46:08.731Z,6.60
2023-02-01T06:48:35.781Z,6.60
2023-02-01T06:51:02.931Z,6.60
2023-02-01T06:53:30.162Z,6.60
2023-02-01T06:56:03.130Z,6.70
2023-02-01T06:58:34.484Z,6.70
2023-02-01T07:01:09.537Z,6.70
2023-02-01T07:03:44.442Z,6.80
2023-02-01T07:06:14.344Z,6.70
2023-02-01T07:08:47.344Z,6.70
2023-02-01T07:11:17.869Z,6.80
2023-02-01T07:13:45.294Z,6.80
2023-02-01T07:16:16.497Z,6.80
2023-02-01T07:18:46.456Z,6.80
2023-02-01T07:21:13.734Z,6.70
2023-02-01T07:23:40.579Z,6.70
2023-02-01T07:26:11.031Z,6.70
2023-02-01T07:28:38.547Z,6.80
2023-02-01T07:31:18.950Z,6.70
2023-02-01T07:33:53.459Z,6.80
2023-02-01T07:36:20.818Z,6.80
2023-02-01T07:38:48.252Z,6.80
2023-02-01T07:41:16.012Z,6.80
2023-02-01T07:43:42.977Z,6.80
2023-02-01T07:46:11.922Z,6.80
2023-02-01T07:48:39.083Z,6.80
2023-02-01T07:51:12.914Z,6.80
2023-02-01T07:53:40.235Z,6.80
2023-02-01T07:56:15.150Z,6.80
2023-02-01T07:58:48.881Z,6.80
2023-02-01T08:01:25.788Z,6.80
2023-02-01T08:03:56.780Z,6.80
2023-02-01T08:06:25.713Z,6.80
2023-02-01T08:08:54.300Z,6.90
2023-02-01T08:11:23.121Z,6.80
2023-02-01T08:13:50.953Z,6.80
2023-02-01T08:16:20.538Z,6.80
2023-02-01T08:18:47.605Z,6.80
2023-02-01T08:21:27.297Z,6.80
2023-02-01T08:23:54.111Z,6.80
2023-02-01T08:26:26.974Z,6.80
2023-02-01T08:29:00.846Z,6.80
2023-02-01T08:31:30.095Z,6.80
2023-02-01T08:34:11.684Z,6.80
2023-02-01T08:36:39.132Z,6.80
2023-02-01T08:39:09.809Z,6.80
2023-02-01T08:41:36.783Z,6.80
2023-02-01T08:44:03.882Z,6.90
2023-02-01T08:46:30.939Z,6.90
2023-02-01T08:48:57.800Z,6.90
2023-02-01T08:51:25.137Z,6.90
2023-02-01T08:53:52.799Z,6.90
2023-02-01T08:56:21.827Z,7.00
2023-02-01T08:58:48.669Z,7.00
2023-02-01T09:01:17.820Z,7.10
2023-02-01T09:03:45.106Z,7.10
2023-02-01T09:06:15.248Z,7.10
2023-02-01T09:08:46.600Z,7.10
2023-02-01T09:11:18.036Z,7.20
2023-02-01T09:13:45.253Z,7.30
2023-02-01T09:16:13.053Z,7.40
2023-02-01T09:18:50.335Z,7.40
2023-02-01T09:21:23.161Z,7.50
2023-02-01T09:23:52.601Z,7.60
2023-02-01T09:26:19.835Z,7.70
2023-02-01T09:28:49.614Z,7.70
2023-02-01T09:31:16.439Z,7.70
2023-02-01T09:33:46.434Z,7.60
2023-02-01T09:36:13.187Z,7.70
2023-02-01T09:38:44.615Z,7.70
2023-02-01T09:41:52.536Z,7.70
2023-02-01T09:44:44.915Z,7.60
2023-02-01T09:47:19.482Z,7.70
2023-02-01T09:50:21.807Z,7.70
2023-02-01T09:53:01.317Z,7.70
2023-02-01T09:55:42.678Z,7.70
2023-02-01T09:58:31.652Z,7.60
2023-02-01T10:01:01.997Z,7.60
2023-02-01T10:03:35.347Z,7.60
2023-02-01T10:06:48.189Z,7.60
2023-02-01T10:09:53.793Z,7.60
2023-02-01T10:12:39.233Z,7.60
2023-02-01T10:15:42.381Z,7.50
2023-02-01T10:18:42.898Z,7.50
2023-02-01T10:21:50.602Z,7.40
2023-02-01T10:24:39.066Z,7.40
2023-02-01T10:27:20.907Z,7.20
2023-02-01T10:30:00.326Z,7.30
2023-02-01T10:32:35.482Z,7.30
2023-02-01T10:35:16.580Z,7.30
2023-02-01T10:37:47.676Z,7.30
2023-02-01T10:40:26.184Z,7.40
2023-02-01T10:43:01.044Z,7.40
2023-02-01T10:45:31.595Z,7.40
2023-02-01T10:48:01.690Z,7.40
2023-02-01T10:50:57.451Z,7.40
2023-02-01T10:53:47.962Z,7.40
2023-02-01T10:56:15.111Z,7.60
2023-02-01T10:58:50.441Z,7.50
2023-02-01T11:01:22.058Z,7.60
2023-02-01T11:03:57.332Z,7.70
2023-02-01T11:06:47.198Z,7.70
2023-02-01T11:09:26.467Z,7.70
2023-02-01T11:11:57.039Z,7.80
2023-02-01T11:14:28.028Z,7.70
2023-02-01T11:17:39.556Z,7.70
2023-02-01T11:20:32.683Z,7.60
2023-02-01T11:23:00.049Z,7.60
2023-02-01T11:25:27.511Z,7.60
2023-02-01T11:27:57.542Z,7.70
2023-02-01T11:30:41.999Z,7.70
2023-02-01T11:33:20.786Z,7.80
2023-02-01T11:35:49.461Z,7.80
2023-02-01T11:38:34.061Z,7.90
2023-02-01T11:41:27.602Z,7.90
2023-02-01T11:44:16.832Z,7.90
2023-02-01T11:46:46.728Z,8.00
2023-02-01T11:49:25.975Z,8.00
2023-02-01T11:52:33.669Z,8.10
2023-02-01T11:55:19.027Z,8.10
2023-02-01T11:58:12.981Z,8.10
2023-02-01T12:01:10.729Z,8.10
2023-02-01T12:04:11.143Z,8.10
2023-02-01T12:06:56.388Z,8.10
2023-02-01T12:10:12.871Z,8.20
2023-02-01T12:13:17.179Z,8.20
2023-02-01T12:16:39.562Z,8.30
2023-02-01T12:19:48.407Z,8.30
2023-02-01T12:22:30.749Z,8.30
2023-02-01T12:25:25.105Z,8.30
2023-02-01T12:28:23.691Z,8.30
2023-02-01T12:31:14.091Z,8.30
2023-02-01T12:34:18.111Z,8.30
2023-02-01T12:37:11.636Z,8.30
2023-02-01T12:40:15.762Z,8.30
2023-02-01T12:43:12.756Z,8.20
2023-02-01T12:46:04.650Z,8.20
2023-02-01T12:48:44.019Z,8.30
2023-02-01T12:51:21.112Z,8.20
2023-02-01T12:54:14.155Z,8.30
2023-02-01T12:57:04.011Z,8.40
2023-02-01T12:59:48.064Z,8.40
2023-02-01T13:02:38.803Z,8.30
2023-02-01T13:05:16.529Z,8.30
2023-02-01T13:07:53.959Z,8.30
2023-02-01T13:10:46.676Z,8.30
2023-02-01T13:13:39.948Z,8.40
2023-02-01T13:16:29.791Z,8.30
2023-02-01T13:19:41.329Z,8.30
2023-02-01T13:22:28.498Z,8.40
2023-02-01T13:25:17.025Z,8.30
2023-02-01T13:27:46.640Z,8.40
2023-02-01T13:30:27.928Z,8.40
2023-02-01T13:33:54.497Z,8.40
2023-02-01T13:36:50.797Z,8.40
2023-02-01T13:40:18.440Z,8.40
2023-02-01T13:43:15.459Z,8.40
2023-02-01T13:45:51.721Z,8.40
2023-02-01T13:48:36.625Z,8.50
2023-02-01T13:51:09.163Z,8.50
2023-02-01T13:53:42.616Z,8.50
2023-02-01T13:56:16.118Z,8.50
2023-02-01T13:58:48.521Z,8.50
2023-02-01T14:01:24.462Z,8.40
2023-02-01T14:04:05.512Z,8.50
2023-02-01T14:06:34.773Z,8.50
2023-02-01T14:09:36.602Z,8.50
2023-02-01T14:12:49.763Z,8.50
2023-02-01T14:15:29.279Z,8.50
2023-02-01T14:17:56.554Z,8.50
2023-02-01T14:20:52.320Z,8.50
2023-02-01T14:23:22.952Z,8.50
2023-02-01T14:26:06.035Z,8.50
2023-02-01T14:28:35.292Z,8.50
2023-02-01T14:31:36.991Z,8.40
2023-02-01T14:34:34.617Z,8.50
2023-02-01T14:37:06.648Z,8.40
2023-02-01T14:39:47.122Z,8.40
2023-02-01T14:42:53.477Z,8.40
2023-02-01T14:45:20.831Z,8.40
2023-02-01T14:47:56.245Z,8.50
2023-02-01T14:50:42.417Z,8.50
2023-02-01T14:53:15.671Z,8.40
2023-02-01T14:55:59.830Z,8.40
2023-02-01T14:58:55.105Z,8.40
2023-02-01T15:01:35.560Z,8.40
2023-02-01T15:04:19.382Z,8.40
2023-02-01T15:06:55.777Z,8.40
2023-02-01T15:09:48.028Z,8.40
2023-02-01T15:12:21.235Z,8.40
2023-02-01T15:15:12.688Z,8.50
2023-02-01T15:18:01.043Z,8.50
2023-02-01T15:20:34.034Z,8.50
2023-02-01T15:23:02.136Z,8.50
2023-02-01T15:25:39.269Z,8.50
2023-02-01T15:28:14.300Z,8.50
2023-02-01T15:30:52.060Z,8.50
2023-02-01T15:33:21.128Z,8.50
2023-02-01T15:35:53.912Z,8.50
2023-02-01T15:38:29.617Z,8.60
2023-02-01T15:41:05.351Z,8.50
2023-02-01T15:43:48.475Z,8.50
2023-02-01T15:46:22.713Z,8.50
2023-02-01T15:48:53.968Z,8.60
2023-02-01T15:51:27.751Z,8.50
2023-02-01T15:54:05.010Z,8.50
2023-02-01T15:56:41.926Z,8.60
2023-02-01T15:59:19.389Z,8.60
2023-02-01T16:01:46.585Z,8.60
2023-02-01T16:04:24.807Z,8.60
2023-02-01T16:06:58.400Z,8.50
2023-02-01T16:09:56.407Z,8.60
2023-02-01T16:12:48.756Z,8.60
2023-02-01T16:15:15.748Z,8.60
2023-02-01T16:17:43.402Z,8.50
2023-02-01T16:20:11.278Z,8.50
2023-02-01T16:22:38.115Z,8.50
2023-02-01T16:25:05.444Z,8.60
2023-02-01T16:27:32.161Z,8.60
2023-02-01T16:29:58.940Z,8.50
2023-02-01T16:32:27.617Z,8.50
2023-02-01T16:34:57.462Z,8.60
2023-02-01T16:37:28.360Z,8.60
2023-02-01T16:39:55.085Z,8.60
2023-02-01T16:42:21.823Z,8.60
2023-02-01T16:44:48.560Z,8.60
2023-02-01T16:47:22.480Z,8.60
2023-02-01T16:49:50.768Z,8.60
2023-02-01T16:52:28.178Z,8.60
2023-02-01T16:54:55.177Z,8.60
2023-02-01T16:57:24.480Z,8.60
2023-02-01T16:59:57.772Z,8.60
2023-02-01T17:02:24.606Z,8.60
2023-02-01T17:04:51.449Z,8.60
2023-02-01T17:07:20.111Z,8.60
2023-02-01T17:09:48.363Z,8.60
2023-02-01T17:12:31.074Z,8.60
2023-02-01T17:14:58.908Z,8.60
2023-02-01T17:17:39.479Z,8.60
2023-02-01T17:20:07.905Z,8.60
2023-02-01T17:22:34.904Z,8.60
2023-02-01T17:25:01.792Z,8.70
2023-02-01T17:27:30.091Z,8.70
2023-02-01T17:29:57.154Z,8.60
2023-02-01T17:32:26.486Z,8.70
2023-02-01T17:34:53.681Z,8.70
2023-02-01T17:37:36.450Z,8.70
2023-02-01T17:40:03.940Z,8.70
2023-02-01T17:42:32.242Z,8.70
2023-02-01T17:45:37.381Z,8.70
2023-02-01T17:48:09.794Z,8.70
2023-02-01T17:50:40.092Z,8.80
2023-02-01T17:53:09.852Z,8.70
2023-02-01T17:55:42.994Z,8.70
2023-02-01T17:58:13.300Z,8.80
2023-02-01T18:00:44.044Z,8.80
2023-02-01T18:03:32.878Z,8.80
2023-02-01T18:06:04.299Z,8.70
2023-02-01T18:08:35.210Z,8.70
2023-02-01T18:11:05.946Z,8.80
2023-02-01T18:13:32.989Z,8.80
2023-02-01T18:16:00.057Z,8.80
2023-02-01T18:18:28.889Z,8.80
2023-02-01T18:21:00.069Z,8.80
2023-02-01T18:23:29.494Z,8.80
2023-02-01T18:25:56.269Z,8.80
2023-02-01T18:28:25.415Z,8.80
2023-02-01T18:30:52.362Z,8.80
2023-02-01T18:33:21.288Z,8.90
2023-02-01T18:35:48.500Z,8.80
2023-02-01T18:38:18.806Z,8.80
2023-02-01T18:40:53.624Z,8.80
2023-02-01T18:43:22.881Z,8.80
2023-02-01T18:45:50.143Z,8.80
2023-02-01T18:48:21.187Z,8.80
2023-02-01T18:50:57.479Z,8.80
2023-02-01T18:53:29.929Z,8.80
2023-02-01T18:56:01.271Z,8.80
2023-02-01T18:58:28.393Z,8.80
2023-02-01T19:01:09.028Z,8.80
2023-02-01T19:03:40.921Z,8.80
2023-02-01T19:06:12.920Z,8.80
2023-02-01T19:08:42.909Z,8.80
2023-02-01T19:11:31.653Z,8.80
2023-02-01T19:14:01.626Z,8.80
2023-02-01T19:16:32.609Z,8.80
2023-02-01T19:18:59.553Z,8.80
2023-02-01T19:21:27.979Z,8.80
2023-02-01T19:23:54.704Z,8.90
2023-02-01T19:26:24.563Z,8.90
2023-02-01T19:28:51.399Z,8.90
2023-02-01T19:31:21.508Z,8.90
2023-02-01T19:33:48.365Z,8.90
2023-02-01T19:36:18.055Z,8.90
2023-02-01T19:38:44.921Z,8.80
2023-02-01T19:41:14.704Z,8.90
2023-02-01T19:43:43.404Z,8.90
2023-02-01T19:46:10.800Z,8.90
2023-02-01T19:48:37.724Z,8.80
2023-02-01T19:51:04.806Z,8.80
2023-02-01T19:53:31.623Z,8.90
2023-02-01T19:56:04.728Z,8.90
2023-02-01T19:58:35.130Z,8.80
2023-02-01T20:01:06.133Z,8.80
2023-02-01T20:03:32.901Z,8.80
2023-02-01T20:06:01.445Z,8.80
2023-02-01T20:08:28.200Z,8.70
2023-02-01T20:10:58.088Z,8.70
2023-02-01T20:13:24.881Z,8.70
2023-02-01T20:15:59.431Z,8.70
2023-02-01T20:18:28.039Z,8.70
2023-02-01T20:20:56.821Z,8.70
2023-02-01T20:23:24.384Z,8.70
2023-02-01T20:25:52.256Z,8.70
2023-02-01T20:28:19.081Z,8.70
2023-02-01T20:30:46.755Z,8.70
2023-02-01T20:33:13.558Z,8.70
2023-02-01T20:35:45.148Z,8.70
2023-02-01T20:38:11.905Z,8.70
2023-02-01T20:40:38.836Z,8.80
2023-02-01T20:43:05.566Z,8.70
2023-02-01T20:45:32.356Z,8.80
2023-02-01T20:47:59.256Z,8.80
2023-02-01T20:50:29.022Z,8.70
2023-02-01T20:52:55.804Z,8.80
2023-02-01T20:55:26.216Z,8.70
2023-02-01T20:57:53.643Z,8.80
2023-02-01T21:00:24.661Z,8.80
2023-02-01T21:02:51.596Z,8.80
2023-02-01T21:05:18.443Z,8.80
2023-02-01T21:07:45.281Z,8.80
2023-02-01T21:10:12.553Z,8.80
2023-02-01T21:12:39.318Z,8.80
2023-02-01T21:15:06.757Z,8.90
2023-02-01T21:17:39.161Z,8.80
2023-02-01T21:20:08.443Z,8.80
2023-02-01T21:22:35.270Z,8.70
2023-02-01T21:25:02.319Z,8.70
2023-02-01T21:27:29.272Z,8.70
2023-02-01T21:29:59.122Z,8.70
2023-02-01T21:32:25.906Z,8.70
2023-02-01T21:34:52.765Z,8.70
2023-02-01T21:37:25.537Z,8.70
2023-02-01T21:39:53.181Z,8.70
2023-02-01T21:42:21.947Z,8.70
2023-02-01T21:44:48.889Z,8.80
2023-02-01T21:47:19.760Z,8.70
2023-02-01T21:49:48.903Z,8.70
2023-02-01T21:52:18.074Z,8.70
2023-02-01T21:54:45.171Z,8.70
2023-02-01T21:57:12.489Z,8.70
2023-02-01T21:59:42.441Z,8.80
2023-02-01T22:02:17.455Z,8.80
2023-02-01T22:04:51.368Z,8.70
2023-02-01T22:07:18.358Z,8.70
2023-02-01T22:09:45.125Z,8.70
2023-02-01T22:12:15.814Z,8.70
2023-02-01T22:14:44.831Z,8.60
2023-02-01T22:17:15.630Z,8.60
2023-02-01T22:19:42.627Z,8.60
2023-02-01T22:22:11.605Z,8.60
2023-02-01T22:24:38.560Z,8.60
2023-02-01T22:27:13.214Z,8.60
2023-02-01T22:29:42.396Z,8.50
2023-02-01T22:32:09.720Z,8.30
2023-02-01T22:34:36.500Z,8.30
2023-02-01T22:37:03.278Z,8.20
2023-02-01T22:39:30.354Z,8.10
2023-02-01T22:41:57.223Z,8.10
2023-02-01T22:44:24.085Z,8.10
2023-02-01T22:46:50.877Z,8.00
2023-02-01T22:49:17.815Z,8.00
2023-02-01T22:51:50.680Z,7.90
2023-02-01T22:54:21.690Z,7.90
2023-02-01T22:56:49.401Z,8.00
2023-02-01T22:59:16.622Z,8.00
2023-02-01T23:01:44.436Z,8.00
2023-02-01T23:04:14.496Z,7.90
2023-02-01T23:06:44.674Z,7.90
2023-02-01T23:09:20.510Z,8.00
2023-02-01T23:11:48.322Z,7.90
2023-02-01T23:14:18.719Z,8.00
2023-02-01T23:16:47.671Z,7.90
2023-02-01T23:19:18.474Z,8.00
2023-02-01T23:21:48.919Z,8.10
2023-02-01T23:24:18.781Z,8.00
2023-02-01T23:26:45.807Z,8.00
2023-02-01T23:29:18.061Z,8.00
2023-02-01T23:31:52.511Z,8.00
2023-02-01T23:34:19.336Z,8.00
2023-02-01T23:36:46.147Z,8.00
2023-02-01T23:39:16.113Z,8.00
2023-02-01T23:41:45.721Z,8.00
2023-02-01T23:44:15.568Z,7.90
2023-02-01T23:46:44.519Z,8.00
2023-02-01T23:49:11.467Z,8.00
2023-02-01T23:51:38.884Z,8.00
2023-02-01T23:54:11.536Z,8.10
2023-02-01T23:56:42.796Z,8.10
2023-02-01T23:59:19.709Z,8.00
